CheckWX is a tool to help pilots better visualize weather data.  It is not intended as a substitute for an official pre-flight weather briefing.

08:45:09 UTC

EKAH TAF
Aarhus Airport
Aarhus, Denmark
TAF AMD EKAH 220609Z 2206/2306 11010KT 9999 SCT010 BKN020 TEMPO 2206/2208 BKN012 BECMG 2212/2215 17010KT

Feb-22@
06:00 UTC

Feb-22 @ 06:00 UTC

Feb-22@
12:00 UTC

Feb-22 @ 12:00 UTC

TAF AMD EKAH 220609Z 2206/2306 11010KT 9999 SCT010 BKN020
Wind
  • 110° at 10 KTS
Cloud Levels
  • Scattered at 1,000' AGL
  • Broken at 2,000' AGL

Feb-22@
06:00 UTC

Feb-22 @ 06:00 UTC

Feb-22@
08:00 UTC

Feb-22 @ 08:00 UTC

TEMPO 2206/2208 BKN012

Expired

Cloud Levels
  • Broken at 1,200' AGL

Feb-22@
12:00 UTC

Feb-22 @ 12:00 UTC

Feb-23@
06:00 UTC

Feb-23 @ 06:00 UTC

BECMG 2212/2215 17010KT

Becoming

BecomingConditions expected by Fri, Feb 22, 2019 @ 15:00 UTC

Wind
  • 170° at 10 KTS
Cloud Levels
  • Scattered at 1,000' AGL
  • Broken at 2,000' AGL